Anniston, Missouri
Current Conditions -  °F | °C
As of 4:35 PM on Thursday 20 Nov 2014 (Local Time) from KCIR Reporting Station
Clear Clear  
Wind Chill: 41°   Ceiling: Unl
Heat Index: 41°   Visibility: 10mi
Dew Point: 24°   Wind: 0mph
Humidity: 50%   Direction: NA
Pressure: 30.23"   Gusts: NA
Location:  36.83°N, 89.33°W
Report Text: KCIR 202235Z AUTO 00000KT 10SM CLR 05/M05 A3023 RMK AO2 T00521046
Loading
Personal Weather Stations






























Interactive Weather Map New forecast layout! Learn more

10-Day Weather Forecast

Advertisements
Track Severe Weather on mobile